sensor_id;sensor_type;location;lat;lon;timestamp;pressure;altitude;pressure_sealevel;temperature
64916;BMP280;51427;-27.442;153.014;2023-06-22T00:01:22;102070.06;;;18.93
64916;BMP280;51427;-27.442;153.014;2023-06-22T00:03:50;102075.78;;;19.12
64916;BMP280;51427;-27.442;153.014;2023-06-22T00:06:17;102062.25;;;19.82
64916;BMP280;51427;-27.442;153.014;2023-06-22T00:08:44;102053.91;;;19.66
64916;BMP280;51427;-27.442;153.014;2023-06-22T00:11:12;102043.72;;;20.36
64916;BMP280;51427;-27.442;153.014;2023-06-22T00:13:40;102035.03;;;20.78
64916;BMP280;51427;-27.442;153.014;2023-06-22T00:16:08;102020.94;;;20.87
64916;BMP280;51427;-27.442;153.014;2023-06-22T00:18:36;102015.44;;;21.05
64916;BMP280;51427;-27.442;153.014;2023-06-22T00:21:03;102012.66;;;20.83
64916;BMP280;51427;-27.442;153.014;2023-06-22T00:23:31;102019.81;;;19.84
64916;BMP280;51427;-27.442;153.014;2023-06-22T00:26:01;102022.28;;;18.86
64916;BMP280;51427;-27.442;153.014;2023-06-22T00:28:28;102018.59;;;20.17
64916;BMP280;51427;-27.442;153.014;2023-06-22T00:30:56;102025.88;;;19.40
64916;BMP280;51427;-27.442;153.014;2023-06-22T00:33:23;102013.69;;;20.54
64916;BMP280;51427;-27.442;153.014;2023-06-22T00:35:51;102002.41;;;20.58
64916;BMP280;51427;-27.442;153.014;2023-06-22T00:38:20;101992.53;;;21.05
64916;BMP280;51427;-27.442;153.014;2023-06-22T00:40:48;101978.28;;;21.15
64916;BMP280;51427;-27.442;153.014;2023-06-22T00:43:15;101968.13;;;21.52
64916;BMP280;51427;-27.442;153.014;2023-06-22T00:45:46;101971.66;;;19.97
64916;BMP280;51427;-27.442;153.014;2023-06-22T00:48:18;101959.38;;;20.29
64916;BMP280;51427;-27.442;153.014;2023-06-22T00:50:46;101957.22;;;21.13
64916;BMP280;51427;-27.442;153.014;2023-06-22T00:53:17;101958.75;;;21.88
64916;BMP280;51427;-27.442;153.014;2023-06-22T00:55:45;101950.28;;;21.64
64916;BMP280;51427;-27.442;153.014;2023-06-22T00:58:19;101935.97;;;19.84
64916;BMP280;51427;-27.442;153.014;2023-06-22T01:00:52;101918.91;;;20.26
64916;BMP280;51427;-27.442;153.014;2023-06-22T01:03:19;101914.44;;;20.68
64916;BMP280;51427;-27.442;153.014;2023-06-22T01:05:48;101911.50;;;21.95
64916;BMP280;51427;-27.442;153.014;2023-06-22T01:11:41;101922.28;;;21.15
64916;BMP280;51427;-27.442;153.014;2023-06-22T01:14:12;101933.84;;;21.43
64916;BMP280;51427;-27.442;153.014;2023-06-22T01:16:44;101923.66;;;22.15
64916;BMP280;51427;-27.442;153.014;2023-06-22T01:19:48;101935.50;;;21.32
64916;BMP280;51427;-27.442;153.014;2023-06-22T01:22:25;101930.53;;;21.06
64916;BMP280;51427;-27.442;153.014;2023-06-22T01:30:19;101924.78;;;20.27
64916;BMP280;51427;-27.442;153.014;2023-06-22T01:32:48;101930.13;;;19.70
64916;BMP280;51427;-27.442;153.014;2023-06-22T01:35:16;101919.22;;;20.73
64916;BMP280;51427;-27.442;153.014;2023-06-22T01:37:44;101914.97;;;20.47
64916;BMP280;51427;-27.442;153.014;2023-06-22T01:40:13;101919.44;;;21.07
64916;BMP280;51427;-27.442;153.014;2023-06-22T01:42:42;101907.31;;;20.98
64916;BMP280;51427;-27.442;153.014;2023-06-22T01:45:11;101903.97;;;20.73
64916;BMP280;51427;-27.442;153.014;2023-06-22T01:47:40;101905.78;;;21.08
64916;BMP280;51427;-27.442;153.014;2023-06-22T01:50:09;101898.91;;;20.46
64916;BMP280;51427;-27.442;153.014;2023-06-22T01:52:37;101893.63;;;20.49
64916;BMP280;51427;-27.442;153.014;2023-06-22T01:55:05;101898.88;;;20.73
64916;BMP280;51427;-27.442;153.014;2023-06-22T01:57:34;101900.94;;;20.80
64916;BMP280;51427;-27.442;153.014;2023-06-22T02:02:44;101887.53;;;21.26
64916;BMP280;51427;-27.442;153.014;2023-06-22T02:05:17;101881.41;;;21.53
64916;BMP280;51427;-27.442;153.014;2023-06-22T02:07:59;101877.03;;;21.31
64916;BMP280;51427;-27.442;153.014;2023-06-22T02:10:28;101879.75;;;20.80
64916;BMP280;51427;-27.442;153.014;2023-06-22T02:12:57;101873.25;;;20.76
64916;BMP280;51427;-27.442;153.014;2023-06-22T02:15:26;101872.81;;;20.82
64916;BMP280;51427;-27.442;153.014;2023-06-22T02:17:54;101863.00;;;22.30
64916;BMP280;51427;-27.442;153.014;2023-06-22T02:20:21;101846.72;;;21.86
64916;BMP280;51427;-27.442;153.014;2023-06-22T02:22:50;101840.13;;;21.48
64916;BMP280;51427;-27.442;153.014;2023-06-22T02:25:18;101828.34;;;21.94
64916;BMP280;51427;-27.442;153.014;2023-06-22T02:27:46;101804.63;;;22.60
64916;BMP280;51427;-27.442;153.014;2023-06-22T02:30:14;101787.66;;;21.23
64916;BMP280;51427;-27.442;153.014;2023-06-22T02:32:43;101773.00;;;21.14
64916;BMP280;51427;-27.442;153.014;2023-06-22T02:35:10;101767.38;;;20.48
64916;BMP280;51427;-27.442;153.014;2023-06-22T02:37:38;101760.06;;;20.56
64916;BMP280;51427;-27.442;153.014;2023-06-22T02:40:11;101772.28;;;20.51
64916;BMP280;51427;-27.442;153.014;2023-06-22T02:42:40;101770.41;;;22.52
64916;BMP280;51427;-27.442;153.014;2023-06-22T02:45:08;101750.19;;;23.14
64916;BMP280;51427;-27.442;153.014;2023-06-22T02:47:36;101767.66;;;22.10
64916;BMP280;51427;-27.442;153.014;2023-06-22T02:50:03;101771.53;;;21.35
64916;BMP280;51427;-27.442;153.014;2023-06-22T02:52:31;101769.38;;;22.32
64916;BMP280;51427;-27.442;153.014;2023-06-22T02:54:59;101770.53;;;21.25
64916;BMP280;51427;-27.442;153.014;2023-06-22T02:57:26;101774.94;;;20.75
64916;BMP280;51427;-27.442;153.014;2023-06-22T02:59:54;101772.69;;;20.45
64916;BMP280;51427;-27.442;153.014;2023-06-22T03:02:26;101768.66;;;20.68
64916;BMP280;51427;-27.442;153.014;2023-06-22T03:04:54;101764.38;;;21.39
64916;BMP280;51427;-27.442;153.014;2023-06-22T03:07:22;101754.78;;;20.59
64916;BMP280;51427;-27.442;153.014;2023-06-22T03:09:49;101760.69;;;20.47
64916;BMP280;51427;-27.442;153.014;2023-06-22T03:12:17;101745.94;;;20.52
64916;BMP280;51427;-27.442;153.014;2023-06-22T03:14:44;101738.53;;;20.37
64916;BMP280;51427;-27.442;153.014;2023-06-22T03:17:12;101725.63;;;21.00
64916;BMP280;51427;-27.442;153.014;2023-06-22T03:19:39;101725.28;;;20.57
64916;BMP280;51427;-27.442;153.014;2023-06-22T03:22:07;101712.38;;;19.86
64916;BMP280;51427;-27.442;153.014;2023-06-22T03:24:34;101714.19;;;19.96
64916;BMP280;51427;-27.442;153.014;2023-06-22T03:27:04;101708.41;;;20.31
64916;BMP280;51427;-27.442;153.014;2023-06-22T03:29:32;101704.41;;;19.78
64916;BMP280;51427;-27.442;153.014;2023-06-22T03:32:00;101702.13;;;19.99
64916;BMP280;51427;-27.442;153.014;2023-06-22T03:34:28;101701.28;;;20.24
64916;BMP280;51427;-27.442;153.014;2023-06-22T03:37:01;101705.56;;;20.11
64916;BMP280;51427;-27.442;153.014;2023-06-22T03:39:29;101701.09;;;20.27
64916;BMP280;51427;-27.442;153.014;2023-06-22T03:41:57;101689.19;;;20.15
64916;BMP280;51427;-27.442;153.014;2023-06-22T03:44:25;101700.69;;;20.08
64916;BMP280;51427;-27.442;153.014;2023-06-22T03:46:52;101702.53;;;20.06
64916;BMP280;51427;-27.442;153.014;2023-06-22T03:49:20;101690.13;;;20.14
64916;BMP280;51427;-27.442;153.014;2023-06-22T03:51:48;101699.50;;;20.26
64916;BMP280;51427;-27.442;153.014;2023-06-22T03:54:15;101695.91;;;20.16
64916;BMP280;51427;-27.442;153.014;2023-06-22T03:56:43;101703.03;;;20.11
64916;BMP280;51427;-27.442;153.014;2023-06-22T03:59:10;101694.41;;;20.26
64916;BMP280;51427;-27.442;153.014;2023-06-22T04:01:38;101708.22;;;20.09
64916;BMP280;51427;-27.442;153.014;2023-06-22T04:04:06;101693.09;;;19.69
64916;BMP280;51427;-27.442;153.014;2023-06-22T04:06:34;101687.03;;;19.72
64916;BMP280;51427;-27.442;153.014;2023-06-22T04:09:01;101687.38;;;19.53
64916;BMP280;51427;-27.442;153.014;2023-06-22T04:11:29;101693.84;;;19.33
64916;BMP280;51427;-27.442;153.014;2023-06-22T04:13:57;101667.44;;;19.35
64916;BMP280;51427;-27.442;153.014;2023-06-22T04:16:24;101668.50;;;19.19
64916;BMP280;51427;-27.442;153.014;2023-06-22T04:18:52;101675.97;;;19.34
64916;BMP280;51427;-27.442;153.014;2023-06-22T04:21:20;101675.69;;;19.12
64916;BMP280;51427;-27.442;153.014;2023-06-22T04:23:47;101688.22;;;19.28
64916;BMP280;51427;-27.442;153.014;2023-06-22T04:26:15;101678.84;;;19.16
64916;BMP280;51427;-27.442;153.014;2023-06-22T04:28:43;101683.59;;;19.08
64916;BMP280;51427;-27.442;153.014;2023-06-22T04:31:17;101690.91;;;19.12
64916;BMP280;51427;-27.442;153.014;2023-06-22T04:33:46;101695.81;;;19.15
64916;BMP280;51427;-27.442;153.014;2023-06-22T04:36:13;101683.22;;;19.00
64916;BMP280;51427;-27.442;153.014;2023-06-22T04:38:41;101680.72;;;18.86
64916;BMP280;51427;-27.442;153.014;2023-06-22T04:41:09;101671.47;;;18.85
64916;BMP280;51427;-27.442;153.014;2023-06-22T04:43:40;101680.56;;;18.75
64916;BMP280;51427;-27.442;153.014;2023-06-22T04:46:09;101683.44;;;18.83
64916;BMP280;51427;-27.442;153.014;2023-06-22T04:48:36;101687.41;;;18.73
64916;BMP280;51427;-27.442;153.014;2023-06-22T04:51:04;101672.78;;;18.78
64916;BMP280;51427;-27.442;153.014;2023-06-22T04:53:31;101671.41;;;18.73
64916;BMP280;51427;-27.442;153.014;2023-06-22T04:55:59;101678.75;;;18.77
64916;BMP280;51427;-27.442;153.014;2023-06-22T04:58:27;101680.91;;;18.83
64916;BMP280;51427;-27.442;153.014;2023-06-22T05:00:55;101697.69;;;19.38
64916;BMP280;51427;-27.442;153.014;2023-06-22T05:03:25;101695.34;;;19.35
64916;BMP280;51427;-27.442;153.014;2023-06-22T05:05:53;101700.72;;;19.31
64916;BMP280;51427;-27.442;153.014;2023-06-22T05:08:21;101710.19;;;19.15
64916;BMP280;51427;-27.442;153.014;2023-06-22T05:10:53;101702.44;;;19.04
64916;BMP280;51427;-27.442;153.014;2023-06-22T05:13:20;101676.59;;;18.98
64916;BMP280;51427;-27.442;153.014;2023-06-22T05:15:48;101674.09;;;18.84
64916;BMP280;51427;-27.442;153.014;2023-06-22T05:18:16;101670.75;;;18.83
64916;BMP280;51427;-27.442;153.014;2023-06-22T05:20:43;101667.28;;;18.84
64916;BMP280;51427;-27.442;153.014;2023-06-22T05:23:11;101675.13;;;18.81
64916;BMP280;51427;-27.442;153.014;2023-06-22T05:25:38;101654.19;;;18.78
64916;BMP280;51427;-27.442;153.014;2023-06-22T05:28:06;101640.69;;;18.77
64916;BMP280;51427;-27.442;153.014;2023-06-22T05:30:38;101634.72;;;18.78
64916;BMP280;51427;-27.442;153.014;2023-06-22T05:33:05;101647.31;;;18.80
64916;BMP280;51427;-27.442;153.014;2023-06-22T05:35:33;101654.28;;;18.76
64916;BMP280;51427;-27.442;153.014;2023-06-22T05:38:00;101666.06;;;18.77
64916;BMP280;51427;-27.442;153.014;2023-06-22T05:40:28;101661.50;;;18.82
64916;BMP280;51427;-27.442;153.014;2023-06-22T05:42:56;101668.59;;;18.77
64916;BMP280;51427;-27.442;153.014;2023-06-22T05:45:23;101676.19;;;18.77
64916;BMP280;51427;-27.442;153.014;2023-06-22T05:47:51;101677.59;;;18.69
64916;BMP280;51427;-27.442;153.014;2023-06-22T05:50:18;101688.91;;;18.63
64916;BMP280;51427;-27.442;153.014;2023-06-22T05:52:46;101696.13;;;18.69
64916;BMP280;51427;-27.442;153.014;2023-06-22T05:55:14;101698.69;;;18.56
64916;BMP280;51427;-27.442;153.014;2023-06-22T05:57:42;101697.63;;;18.46
64916;BMP280;51427;-27.442;153.014;2023-06-22T06:00:10;101679.97;;;18.44
64916;BMP280;51427;-27.442;153.014;2023-06-22T06:02:38;101669.56;;;18.35
64916;BMP280;51427;-27.442;153.014;2023-06-22T06:05:11;101656.97;;;18.33
64916;BMP280;51427;-27.442;153.014;2023-06-22T06:07:46;101670.19;;;18.24
64916;BMP280;51427;-27.442;153.014;2023-06-22T06:10:13;101670.91;;;18.26
64916;BMP280;51427;-27.442;153.014;2023-06-22T06:12:41;101675.63;;;18.32
64916;BMP280;51427;-27.442;153.014;2023-06-22T06:15:09;101686.47;;;18.34
64916;BMP280;51427;-27.442;153.014;2023-06-22T06:17:51;101687.13;;;18.24
64916;BMP280;51427;-27.442;153.014;2023-06-22T06:20:21;101688.81;;;18.23
64916;BMP280;51427;-27.442;153.014;2023-06-22T06:22:49;101691.75;;;18.02
64916;BMP280;51427;-27.442;153.014;2023-06-22T06:25:17;101686.00;;;18.14
64916;BMP280;51427;-27.442;153.014;2023-06-22T06:27:48;101690.50;;;18.09
64916;BMP280;51427;-27.442;153.014;2023-06-22T06:30:17;101682.81;;;18.11
64916;BMP280;51427;-27.442;153.014;2023-06-22T06:32:46;101688.13;;;18.06
64916;BMP280;51427;-27.442;153.014;2023-06-22T06:35:14;101682.00;;;18.10
64916;BMP280;51427;-27.442;153.014;2023-06-22T06:37:45;101675.38;;;18.08
64916;BMP280;51427;-27.442;153.014;2023-06-22T06:40:14;101682.16;;;17.93
64916;BMP280;51427;-27.442;153.014;2023-06-22T06:42:44;101698.25;;;17.92
64916;BMP280;51427;-27.442;153.014;2023-06-22T06:45:18;101686.88;;;17.99
64916;BMP280;51427;-27.442;153.014;2023-06-22T06:47:46;101674.31;;;17.98
64916;BMP280;51427;-27.442;153.014;2023-06-22T06:50:14;101662.25;;;17.87
64916;BMP280;51427;-27.442;153.014;2023-06-22T06:52:41;101649.38;;;17.76
64916;BMP280;51427;-27.442;153.014;2023-06-22T06:55:10;101657.63;;;17.80
64916;BMP280;51427;-27.442;153.014;2023-06-22T06:57:39;101668.19;;;17.86
64916;BMP280;51427;-27.442;153.014;2023-06-22T07:00:08;101679.09;;;17.88
64916;BMP280;51427;-27.442;153.014;2023-06-22T07:02:39;101694.06;;;17.77
64916;BMP280;51427;-27.442;153.014;2023-06-22T07:05:08;101705.56;;;17.83
64916;BMP280;51427;-27.442;153.014;2023-06-22T07:07:36;101708.00;;;17.84
64916;BMP280;51427;-27.442;153.014;2023-06-22T07:10:07;101704.38;;;17.74
64916;BMP280;51427;-27.442;153.014;2023-06-22T07:12:35;101686.78;;;17.58
64916;BMP280;51427;-27.442;153.014;2023-06-22T07:15:07;101697.63;;;17.60
64916;BMP280;51427;-27.442;153.014;2023-06-22T07:17:36;101698.25;;;17.63
64916;BMP280;51427;-27.442;153.014;2023-06-22T07:20:06;101694.91;;;17.63
64916;BMP280;51427;-27.442;153.014;2023-06-22T07:22:39;101693.19;;;17.63
64916;BMP280;51427;-27.442;153.014;2023-06-22T07:25:07;101722.84;;;17.61
64916;BMP280;51427;-27.442;153.014;2023-06-22T07:27:45;101731.44;;;17.59
64916;BMP280;51427;-27.442;153.014;2023-06-22T07:30:13;101733.22;;;17.57
64916;BMP280;51427;-27.442;153.014;2023-06-22T07:32:41;101733.53;;;17.51
64916;BMP280;51427;-27.442;153.014;2023-06-22T07:35:09;101730.59;;;17.58
64916;BMP280;51427;-27.442;153.014;2023-06-22T07:37:37;101736.50;;;17.59
64916;BMP280;51427;-27.442;153.014;2023-06-22T07:40:05;101754.03;;;17.62
64916;BMP280;51427;-27.442;153.014;2023-06-22T07:42:33;101746.44;;;17.62
64916;BMP280;51427;-27.442;153.014;2023-06-22T07:45:02;101746.97;;;17.53
64916;BMP280;51427;-27.442;153.014;2023-06-22T07:47:30;101747.59;;;17.56
64916;BMP280;51427;-27.442;153.014;2023-06-22T07:50:00;101737.97;;;17.32
64916;BMP280;51427;-27.442;153.014;2023-06-22T07:52:31;101733.09;;;17.14
64916;BMP280;51427;-27.442;153.014;2023-06-22T07:54:59;101751.16;;;17.23
64916;BMP280;51427;-27.442;153.014;2023-06-22T07:57:27;101762.63;;;17.44
64916;BMP280;51427;-27.442;153.014;2023-06-22T08:00:00;101768.00;;;17.53
64916;BMP280;51427;-27.442;153.014;2023-06-22T08:02:31;101779.63;;;17.42
64916;BMP280;51427;-27.442;153.014;2023-06-22T08:04:58;101775.13;;;17.47
64916;BMP280;51427;-27.442;153.014;2023-06-22T08:07:26;101776.75;;;17.48
64916;BMP280;51427;-27.442;153.014;2023-06-22T08:09:53;101769.03;;;17.35
64916;BMP280;51427;-27.442;153.014;2023-06-22T08:12:21;101768.81;;;17.08
64916;BMP280;51427;-27.442;153.014;2023-06-22T08:14:49;101778.63;;;17.14
64916;BMP280;51427;-27.442;153.014;2023-06-22T08:17:16;101787.06;;;17.29
64916;BMP280;51427;-27.442;153.014;2023-06-22T08:19:44;101788.25;;;17.38
64916;BMP280;51427;-27.442;153.014;2023-06-22T08:22:12;101784.69;;;17.42
64916;BMP280;51427;-27.442;153.014;2023-06-22T08:24:39;101783.28;;;17.36
64916;BMP280;51427;-27.442;153.014;2023-06-22T08:27:10;101785.66;;;17.24
64916;BMP280;51427;-27.442;153.014;2023-06-22T08:29:42;101803.03;;;17.30
64916;BMP280;51427;-27.442;153.014;2023-06-22T08:32:10;101813.41;;;17.41
64916;BMP280;51427;-27.442;153.014;2023-06-22T08:34:37;101815.22;;;17.39
64916;BMP280;51427;-27.442;153.014;2023-06-22T08:37:09;101815.78;;;17.44
64916;BMP280;51427;-27.442;153.014;2023-06-22T08:39:37;101821.81;;;17.41
64916;BMP280;51427;-27.442;153.014;2023-06-22T08:42:06;101822.97;;;17.36
64916;BMP280;51427;-27.442;153.014;2023-06-22T08:44:33;101826.06;;;17.41
64916;BMP280;51427;-27.442;153.014;2023-06-22T08:47:01;101824.91;;;17.31
64916;BMP280;51427;-27.442;153.014;2023-06-22T08:49:30;101818.59;;;17.23
64916;BMP280;51427;-27.442;153.014;2023-06-22T08:51:57;101831.38;;;17.04
64916;BMP280;51427;-27.442;153.014;2023-06-22T08:54:25;101831.78;;;16.97
64916;BMP280;51427;-27.442;153.014;2023-06-22T08:56:53;101825.38;;;16.90
64916;BMP280;51427;-27.442;153.014;2023-06-22T08:59:20;101845.25;;;16.80
64916;BMP280;51427;-27.442;153.014;2023-06-22T09:01:48;101858.69;;;16.98
64916;BMP280;51427;-27.442;153.014;2023-06-22T09:04:15;101866.19;;;16.99
64916;BMP280;51427;-27.442;153.014;2023-06-22T09:06:43;101859.22;;;17.04
64916;BMP280;51427;-27.442;153.014;2023-06-22T09:09:15;101865.22;;;17.02
64916;BMP280;51427;-27.442;153.014;2023-06-22T09:11:43;101864.34;;;17.03
64916;BMP280;51427;-27.442;153.014;2023-06-22T09:14:11;101850.16;;;16.83
64916;BMP280;51427;-27.442;153.014;2023-06-22T09:16:39;101837.59;;;16.33
64916;BMP280;51427;-27.442;153.014;2023-06-22T09:19:06;101832.38;;;16.36
64916;BMP280;51427;-27.442;153.014;2023-06-22T09:21:34;101837.06;;;16.27
64916;BMP280;51427;-27.442;153.014;2023-06-22T09:24:01;101841.28;;;16.43
64916;BMP280;51427;-27.442;153.014;2023-06-22T09:26:29;101836.22;;;16.60
64916;BMP280;51427;-27.442;153.014;2023-06-22T09:28:57;101844.97;;;16.53
64916;BMP280;51427;-27.442;153.014;2023-06-22T09:31:24;101854.97;;;16.39
64916;BMP280;51427;-27.442;153.014;2023-06-22T09:33:53;101853.63;;;16.49
64916;BMP280;51427;-27.442;153.014;2023-06-22T09:36:21;101860.31;;;16.50
64916;BMP280;51427;-27.442;153.014;2023-06-22T09:38:49;101869.44;;;16.52
64916;BMP280;51427;-27.442;153.014;2023-06-22T09:41:25;101869.88;;;16.43
64916;BMP280;51427;-27.442;153.014;2023-06-22T09:43:53;101859.53;;;16.31
64916;BMP280;51427;-27.442;153.014;2023-06-22T09:46:21;101855.91;;;16.01
64916;BMP280;51427;-27.442;153.014;2023-06-22T09:48:51;101852.91;;;16.12
64916;BMP280;51427;-27.442;153.014;2023-06-22T09:51:19;101858.53;;;16.35
64916;BMP280;51427;-27.442;153.014;2023-06-22T09:53:48;101863.13;;;16.44
64916;BMP280;51427;-27.442;153.014;2023-06-22T09:56:16;101865.81;;;16.41
64916;BMP280;51427;-27.442;153.014;2023-06-22T09:58:45;101861.28;;;16.12
64916;BMP280;51427;-27.442;153.014;2023-06-22T10:01:13;101844.25;;;15.82
64916;BMP280;51427;-27.442;153.014;2023-06-22T10:03:44;101839.88;;;16.02
64916;BMP280;51427;-27.442;153.014;2023-06-22T10:06:12;101838.38;;;15.98
64916;BMP280;51427;-27.442;153.014;2023-06-22T10:08:39;101836.50;;;16.03
64916;BMP280;51427;-27.442;153.014;2023-06-22T10:11:07;101837.38;;;16.02
64916;BMP280;51427;-27.442;153.014;2023-06-22T10:13:35;101828.28;;;15.98
64916;BMP280;51427;-27.442;153.014;2023-06-22T10:16:02;101822.22;;;16.02
64916;BMP280;51427;-27.442;153.014;2023-06-22T10:18:30;101827.19;;;16.04
64916;BMP280;51427;-27.442;153.014;2023-06-22T10:20:57;101824.28;;;15.94
64916;BMP280;51427;-27.442;153.014;2023-06-22T10:23:25;101828.22;;;16.00
64916;BMP280;51427;-27.442;153.014;2023-06-22T10:25:53;101829.13;;;15.99
64916;BMP280;51427;-27.442;153.014;2023-06-22T10:28:20;101833.91;;;16.05
64916;BMP280;51427;-27.442;153.014;2023-06-22T10:30:48;101826.47;;;16.02
64916;BMP280;51427;-27.442;153.014;2023-06-22T10:33:15;101816.19;;;15.88
64916;BMP280;51427;-27.442;153.014;2023-06-22T10:35:43;101810.22;;;15.72
64916;BMP280;51427;-27.442;153.014;2023-06-22T10:38:10;101805.78;;;15.77
64916;BMP280;51427;-27.442;153.014;2023-06-22T10:40:38;101798.28;;;15.76
64916;BMP280;51427;-27.442;153.014;2023-06-22T10:43:06;101806.31;;;15.84
64916;BMP280;51427;-27.442;153.014;2023-06-22T10:45:33;101814.84;;;15.98
64916;BMP280;51427;-27.442;153.014;2023-06-22T10:48:01;101835.13;;;15.96
64916;BMP280;51427;-27.442;153.014;2023-06-22T10:50:29;101819.91;;;15.98
64916;BMP280;51427;-27.442;153.014;2023-06-22T10:52:57;101832.31;;;16.02
64916;BMP280;51427;-27.442;153.014;2023-06-22T10:55:28;101830.09;;;15.78
64916;BMP280;51427;-27.442;153.014;2023-06-22T10:57:55;101833.22;;;15.66
64916;BMP280;51427;-27.442;153.014;2023-06-22T11:00:23;101826.91;;;15.75
64916;BMP280;51427;-27.442;153.014;2023-06-22T11:02:50;101823.66;;;15.73
64916;BMP280;51427;-27.442;153.014;2023-06-22T11:05:18;101826.31;;;15.70
64916;BMP280;51427;-27.442;153.014;2023-06-22T11:07:45;101826.38;;;15.68
64916;BMP280;51427;-27.442;153.014;2023-06-22T11:10:15;101816.63;;;15.79
64916;BMP280;51427;-27.442;153.014;2023-06-22T11:12:43;101805.13;;;15.74
64916;BMP280;51427;-27.442;153.014;2023-06-22T11:15:11;101799.13;;;15.58
64916;BMP280;51427;-27.442;153.014;2023-06-22T11:17:38;101783.25;;;15.56
64916;BMP280;51427;-27.442;153.014;2023-06-22T11:20:07;101781.16;;;15.64
64916;BMP280;51427;-27.442;153.014;2023-06-22T11:22:41;101774.34;;;15.66
64916;BMP280;51427;-27.442;153.014;2023-06-22T11:25:09;101778.41;;;15.51
64916;BMP280;51427;-27.442;153.014;2023-06-22T11:27:38;101771.50;;;15.55
64916;BMP280;51427;-27.442;153.014;2023-06-22T11:30:07;101765.13;;;15.48
64916;BMP280;51427;-27.442;153.014;2023-06-22T11:32:35;101761.81;;;15.29
64916;BMP280;51427;-27.442;153.014;2023-06-22T11:35:02;101754.31;;;15.28
64916;BMP280;51427;-27.442;153.014;2023-06-22T11:37:30;101755.09;;;15.10
64916;BMP280;51427;-27.442;153.014;2023-06-22T11:39:57;101746.94;;;15.23
64916;BMP280;51427;-27.442;153.014;2023-06-22T11:42:25;101752.03;;;15.40
64916;BMP280;51427;-27.442;153.014;2023-06-22T11:44:53;101751.31;;;15.38
64916;BMP280;51427;-27.442;153.014;2023-06-22T11:47:21;101758.88;;;15.38
64916;BMP280;51427;-27.442;153.014;2023-06-22T11:49:48;101754.56;;;15.40
64916;BMP280;51427;-27.442;153.014;2023-06-22T11:52:16;101760.63;;;15.36
64916;BMP280;51427;-27.442;153.014;2023-06-22T11:54:44;101755.78;;;15.32
64916;BMP280;51427;-27.442;153.014;2023-06-22T11:57:12;101755.38;;;15.40
64916;BMP280;51427;-27.442;153.014;2023-06-22T11:59:40;101740.91;;;15.44
64916;BMP280;51427;-27.442;153.014;2023-06-22T12:02:07;101734.66;;;15.34
64916;BMP280;51427;-27.442;153.014;2023-06-22T12:04:36;101739.09;;;15.29
64916;BMP280;51427;-27.442;153.014;2023-06-22T12:07:04;101737.00;;;15.20
64916;BMP280;51427;-27.442;153.014;2023-06-22T12:09:32;101736.34;;;15.15
64916;BMP280;51427;-27.442;153.014;2023-06-22T12:11:59;101746.50;;;14.95
64916;BMP280;51427;-27.442;153.014;2023-06-22T12:14:27;101738.34;;;14.91
64916;BMP280;51427;-27.442;153.014;2023-06-22T12:16:54;101730.97;;;15.04
64916;BMP280;51427;-27.442;153.014;2023-06-22T12:19:22;101734.09;;;15.09
64916;BMP280;51427;-27.442;153.014;2023-06-22T12:21:50;101730.84;;;15.07
64916;BMP280;51427;-27.442;153.014;2023-06-22T12:24:17;101734.09;;;15.09
64916;BMP280;51427;-27.442;153.014;2023-06-22T12:26:45;101727.66;;;15.04
64916;BMP280;51427;-27.442;153.014;2023-06-22T12:29:13;101744.13;;;14.93
64916;BMP280;51427;-27.442;153.014;2023-06-22T12:31:40;101742.34;;;14.76
64916;BMP280;51427;-27.442;153.014;2023-06-22T12:34:08;101750.31;;;14.86
64916;BMP280;51427;-27.442;153.014;2023-06-22T12:36:36;101753.84;;;14.82
64916;BMP280;51427;-27.442;153.014;2023-06-22T12:39:03;101747.47;;;14.75
64916;BMP280;51427;-27.442;153.014;2023-06-22T12:41:31;101747.47;;;14.75
64916;BMP280;51427;-27.442;153.014;2023-06-22T12:43:59;101741.25;;;14.82
64916;BMP280;51427;-27.442;153.014;2023-06-22T12:46:26;101745.69;;;14.77
64916;BMP280;51427;-27.442;153.014;2023-06-22T12:48:54;101739.69;;;14.79
64916;BMP280;51427;-27.442;153.014;2023-06-22T12:51:24;101733.59;;;14.65
64916;BMP280;51427;-27.442;153.014;2023-06-22T12:53:52;101734.38;;;14.67
64916;BMP280;51427;-27.442;153.014;2023-06-22T12:56:20;101741.88;;;14.48
64916;BMP280;51427;-27.442;153.014;2023-06-22T12:58:47;101737.09;;;14.62
64916;BMP280;51427;-27.442;153.014;2023-06-22T13:01:15;101745.31;;;14.66
64916;BMP280;51427;-27.442;153.014;2023-06-22T13:03:44;101735.00;;;14.52
64916;BMP280;51427;-27.442;153.014;2023-06-22T13:06:12;101727.72;;;14.46
64916;BMP280;51427;-27.442;153.014;2023-06-22T13:08:40;101725.69;;;14.54
64916;BMP280;51427;-27.442;153.014;2023-06-22T13:11:08;101726.97;;;14.44
64916;BMP280;51427;-27.442;153.014;2023-06-22T13:13:35;101722.06;;;14.41
64916;BMP280;51427;-27.442;153.014;2023-06-22T13:16:03;101722.00;;;14.43
64916;BMP280;51427;-27.442;153.014;2023-06-22T13:18:31;101720.03;;;14.49
64916;BMP280;51427;-27.442;153.014;2023-06-22T13:20:59;101711.94;;;14.43
64916;BMP280;51427;-27.442;153.014;2023-06-22T13:23:26;101718.63;;;14.24
64916;BMP280;51427;-27.442;153.014;2023-06-22T13:25:54;101698.28;;;14.28
64916;BMP280;51427;-27.442;153.014;2023-06-22T13:28:22;101693.44;;;14.24
64916;BMP280;51427;-27.442;153.014;2023-06-22T13:30:49;101692.69;;;14.22
64916;BMP280;51427;-27.442;153.014;2023-06-22T13:33:17;101692.00;;;14.18
64916;BMP280;51427;-27.442;153.014;2023-06-22T13:35:44;101689.28;;;14.23
64916;BMP280;51427;-27.442;153.014;2023-06-22T13:38:12;101684.84;;;14.09
64916;BMP280;51427;-27.442;153.014;2023-06-22T13:40:40;101690.00;;;14.06